createdAt,value
2023-05-23T00:00:33.444Z,100227.63
2023-05-23T00:03:03.536Z,100241.63
2023-05-23T00:05:31.553Z,100236.13
2023-05-23T00:07:59.355Z,100226.28
2023-05-23T00:10:27.640Z,100225.44
2023-05-23T00:12:55.454Z,100221.59
2023-05-23T00:15:23.164Z,100220.19
2023-05-23T00:17:53.141Z,100220.41
2023-05-23T00:20:21.229Z,100220.28
2023-05-23T00:22:49.234Z,100223.28
2023-05-23T00:25:16.937Z,100218.63
2023-05-23T00:27:44.626Z,100223.38
2023-05-23T00:30:13.300Z,100224.56
2023-05-23T00:32:41.316Z,100225.66
2023-05-23T00:35:11.422Z,100226.09
2023-05-23T00:37:40.514Z,100225.50
2023-05-23T00:40:10.160Z,100225.38
2023-05-23T00:42:38.121Z,100226.56
2023-05-23T00:45:12.350Z,100223.59
2023-05-23T00:47:41.782Z,100222.84
2023-05-23T00:50:20.098Z,100224.78
2023-05-23T00:52:52.843Z,100233.28
2023-05-23T00:55:22.333Z,100225.84
2023-05-23T00:57:54.998Z,100234.06
2023-05-23T01:00:24.985Z,100240.66
2023-05-23T01:02:54.762Z,100236.22
2023-05-23T01:05:25.455Z,100234.88
2023-05-23T01:07:55.369Z,100235.16
2023-05-23T01:10:28.245Z,100249.25
2023-05-23T01:13:05.976Z,100245.91
2023-05-23T01:15:40.832Z,100240.34
2023-05-23T01:18:15.122Z,100245.09
2023-05-23T01:20:50.344Z,100245.34
2023-05-23T01:23:55.795Z,100230.81
2023-05-23T01:26:42.274Z,100243.00
2023-05-23T01:29:15.709Z,100242.50
2023-05-23T01:31:47.264Z,100250.47
2023-05-23T01:34:17.013Z,100252.72
2023-05-23T01:36:45.443Z,100251.78
2023-05-23T01:39:20.118Z,100254.75
2023-05-23T01:41:51.838Z,100261.47
2023-05-23T01:44:22.031Z,100262.53
2023-05-23T01:46:50.100Z,100260.84
2023-05-23T01:49:19.538Z,100261.47
2023-05-23T01:51:47.860Z,100259.91
2023-05-23T01:54:19.850Z,100257.09
2023-05-23T01:56:49.170Z,100261.84
2023-05-23T01:59:17.922Z,100260.41
2023-05-23T02:01:47.592Z,100264.63
2023-05-23T02:04:16.264Z,100258.00
2023-05-23T02:06:44.077Z,100259.78
2023-05-23T02:09:16.476Z,100262.19
2023-05-23T02:11:46.691Z,100259.19
2023-05-23T02:14:14.814Z,100260.72
2023-05-23T02:16:43.386Z,100260.88
2023-05-23T02:19:13.009Z,100264.72
2023-05-23T02:21:41.169Z,100268.22
2023-05-23T02:24:09.048Z,100268.97
2023-05-23T02:26:37.219Z,100277.25
2023-05-23T02:29:05.155Z,100285.53
2023-05-23T02:31:33.165Z,100284.09
2023-05-23T02:34:01.080Z,100289.13
2023-05-23T02:36:30.160Z,100291.66
2023-05-23T02:38:58.811Z,100294.78
2023-05-23T02:41:27.408Z,100290.81
2023-05-23T02:43:55.789Z,100299.16
2023-05-23T02:46:23.834Z,100307.00
2023-05-23T02:48:51.857Z,100311.63
2023-05-23T02:51:20.029Z,100317.44
2023-05-23T02:53:49.469Z,100322.69
2023-05-23T02:56:17.680Z,100321.56
2023-05-23T02:58:45.593Z,100323.00
2023-05-23T03:01:13.708Z,100317.75
2023-05-23T03:03:42.240Z,100324.66
2023-05-23T03:06:14.318Z,100320.72
2023-05-23T03:08:43.266Z,100326.72
2023-05-23T03:11:13.346Z,100331.72
2023-05-23T03:13:41.184Z,100328.38
2023-05-23T03:16:09.264Z,100333.00
2023-05-23T03:18:39.175Z,100336.03
2023-05-23T03:21:07.397Z,100333.94
2023-05-23T03:23:35.094Z,100336.56
2023-05-23T03:26:06.492Z,100335.94
2023-05-23T03:28:36.709Z,100347.31
2023-05-23T03:31:04.928Z,100339.22
2023-05-23T03:33:33.366Z,100332.16
2023-05-23T03:36:01.326Z,100343.22
2023-05-23T03:38:29.456Z,100342.28
2023-05-23T03:40:57.801Z,100338.81
2023-05-23T03:43:26.459Z,100345.53
2023-05-23T03:45:56.414Z,100348.69
2023-05-23T03:48:24.489Z,100356.34
2023-05-23T03:50:52.688Z,100342.50
2023-05-23T03:53:20.966Z,100347.63
2023-05-23T03:55:48.969Z,100345.53
2023-05-23T03:58:16.776Z,100345.84
2023-05-23T04:00:48.201Z,100347.63
2023-05-23T04:03:18.720Z,100348.47
2023-05-23T04:05:48.851Z,100346.16
2023-05-23T04:08:17.410Z,100348.69
2023-05-23T04:10:46.027Z,100349.00
2023-05-23T04:13:15.358Z,100352.69
2023-05-23T04:15:45.418Z,100357.50
2023-05-23T04:18:15.009Z,100367.56
2023-05-23T04:20:45.923Z,100369.50
2023-05-23T04:23:14.076Z,100379.97
2023-05-23T04:25:45.445Z,100372.75
2023-05-23T04:28:20.589Z,100380.22
2023-05-23T04:30:49.587Z,100374.94
2023-05-23T04:33:21.656Z,100381.47
2023-05-23T04:35:51.292Z,100392.91
2023-05-23T04:38:19.849Z,100395.63
2023-05-23T04:40:49.361Z,100393.75
2023-05-23T04:43:46.282Z,100402.44
2023-05-23T04:46:26.846Z,100405.06
2023-05-23T04:49:11.493Z,100399.22
2023-05-23T04:51:41.451Z,100404.91
2023-05-23T04:54:19.240Z,100413.47
2023-05-23T04:56:47.980Z,100412.44
2023-05-23T04:59:19.176Z,100418.06
2023-05-23T05:01:47.553Z,100418.41
2023-05-23T05:04:15.739Z,100423.69
2023-05-23T05:06:48.061Z,100421.59
2023-05-23T05:09:16.261Z,100429.97
2023-05-23T05:11:44.885Z,100428.72
2023-05-23T05:14:13.025Z,100430.09
2023-05-23T05:16:42.701Z,100437.25
2023-05-23T05:19:11.974Z,100434.34
2023-05-23T05:21:39.793Z,100436.78
2023-05-23T05:24:09.734Z,100438.88
2023-05-23T05:26:38.521Z,100446.41
2023-05-23T05:29:07.628Z,100452.91
2023-05-23T05:31:38.186Z,100448.75
2023-05-23T05:34:06.530Z,100450.41
2023-05-23T05:36:34.367Z,100449.38
2023-05-23T05:39:04.145Z,100449.78
2023-05-23T05:41:33.456Z,100457.03
2023-05-23T05:44:01.478Z,100459.66
2023-05-23T05:46:30.184Z,100461.53
2023-05-23T05:48:58.060Z,100465.69
2023-05-23T05:51:26.402Z,100464.19
2023-05-23T05:53:54.430Z,100467.78
2023-05-23T05:56:23.310Z,100472.41
2023-05-23T05:58:52.683Z,100472.50
2023-05-23T06:01:21.003Z,100477.38
2023-05-23T06:03:49.229Z,100472.97
2023-05-23T06:06:17.167Z,100472.22
2023-05-23T06:08:45.733Z,100471.28
2023-05-23T06:11:17.153Z,100473.88
2023-05-23T06:13:45.118Z,100479.03
2023-05-23T06:16:15.256Z,100476.72
2023-05-23T06:18:44.553Z,100478.13
2023-05-23T06:21:12.452Z,100481.56
2023-05-23T06:23:40.442Z,100487.69
2023-05-23T06:26:11.142Z,100486.81
2023-05-23T06:28:40.162Z,100486.72
2023-05-23T06:31:10.047Z,100496.28
2023-05-23T06:33:39.403Z,100497.22
2023-05-23T06:36:08.034Z,100489.13
2023-05-23T06:38:36.617Z,100501.63
2023-05-23T06:41:07.295Z,100497.03
2023-05-23T06:43:36.937Z,100503.88
2023-05-23T06:46:25.382Z,100510.59
2023-05-23T06:49:06.607Z,100515.00
2023-05-23T06:51:42.037Z,100513.78
2023-05-23T06:54:11.461Z,100513.78
2023-05-23T06:56:39.447Z,100511.19
2023-05-23T06:59:07.710Z,100511.41
2023-05-23T07:01:35.732Z,100521.59
2023-05-23T07:04:05.475Z,100518.31
2023-05-23T07:06:35.602Z,100526.38
2023-05-23T07:09:05.196Z,100523.56
2023-05-23T07:11:33.610Z,100531.09
2023-05-23T07:14:03.048Z,100532.25
2023-05-23T07:16:45.529Z,100519.81
2023-05-23T07:19:15.006Z,100527.38
2023-05-23T07:21:47.291Z,100528.13
2023-05-23T07:24:18.112Z,100533.41
2023-05-23T07:26:49.003Z,100526.03
2023-05-23T07:29:16.879Z,100533.78
2023-05-23T07:31:48.010Z,100540.19
2023-05-23T07:34:17.510Z,100543.75
2023-05-23T07:36:54.258Z,100532.88
2023-05-23T07:39:24.398Z,100540.41
2023-05-23T07:41:55.051Z,100553.56
2023-05-23T07:44:27.881Z,100554.19
2023-05-23T07:47:02.340Z,100548.41
2023-05-23T07:49:54.648Z,100549.34
2023-05-23T07:52:24.177Z,100551.88
2023-05-23T07:54:52.198Z,100543.66
2023-05-23T07:57:19.995Z,100541.69
2023-05-23T07:59:48.209Z,100546.63
2023-05-23T08:02:16.915Z,100554.06
2023-05-23T08:04:47.960Z,100552.72
2023-05-23T08:07:19.267Z,100545.84
2023-05-23T08:09:52.082Z,100552.53
2023-05-23T08:12:21.964Z,100542.34
2023-05-23T08:14:55.377Z,100534.88
2023-05-23T08:17:25.944Z,100531.63
2023-05-23T08:19:55.917Z,100534.19
2023-05-23T08:22:24.198Z,100529.50
2023-05-23T08:24:53.104Z,100529.97
2023-05-23T08:27:22.353Z,100527.22
2023-05-23T08:29:55.859Z,100524.16
2023-05-23T08:32:23.752Z,100520.31
2023-05-23T08:34:51.617Z,100523.88
2023-05-23T08:37:21.685Z,100532.66
2023-05-23T08:39:49.530Z,100534.31
2023-05-23T08:42:37.756Z,100529.25
2023-05-23T08:45:10.212Z,100543.88
2023-05-23T08:47:39.247Z,100540.06
2023-05-23T08:50:10.443Z,100546.22
2023-05-23T08:52:46.079Z,100547.97
2023-05-23T08:55:14.428Z,100549.13
2023-05-23T08:57:43.833Z,100551.81
2023-05-23T09:00:29.309Z,100555.16
2023-05-23T09:02:58.638Z,100552.00
2023-05-23T09:05:46.990Z,100554.53
2023-05-23T09:08:16.626Z,100552.16
2023-05-23T09:10:45.606Z,100540.47
2023-05-23T09:13:17.898Z,100538.56
2023-05-23T09:16:03.871Z,100527.97
2023-05-23T09:18:39.580Z,100537.44
2023-05-23T09:21:09.086Z,100532.41
2023-05-23T09:23:42.524Z,100545.28
2023-05-23T09:26:13.347Z,100547.91
2023-05-23T09:28:44.337Z,100545.63
2023-05-23T09:31:12.976Z,100555.09
2023-05-23T09:33:44.060Z,100558.78
2023-05-23T09:36:11.800Z,100555.66
2023-05-23T09:38:42.651Z,100552.00
2023-05-23T09:41:12.323Z,100552.47
2023-05-23T09:43:41.002Z,100553.94
2023-05-23T09:46:10.841Z,100545.19
2023-05-23T09:48:39.039Z,100553.19
2023-05-23T09:51:08.780Z,100554.53
2023-05-23T09:53:36.874Z,100546.31
2023-05-23T09:56:07.349Z,100553.94
2023-05-23T09:58:37.064Z,100546.47
2023-05-23T10:01:10.284Z,100554.22
2023-05-23T10:03:45.905Z,100556.69
2023-05-23T10:06:20.395Z,100556.56
2023-05-23T10:08:55.902Z,100545.38
2023-05-23T10:12:20.475Z,100546.75
2023-05-23T10:14:56.361Z,100552.91
2023-05-23T10:17:34.026Z,100561.66
2023-05-23T10:20:08.671Z,100571.31
2023-05-23T10:22:37.318Z,100564.97
2023-05-23T10:25:07.133Z,100574.38
2023-05-23T10:27:36.728Z,100571.91
2023-05-23T10:30:06.541Z,100562.22
2023-05-23T10:32:35.834Z,100561.56
2023-05-23T10:35:11.699Z,100570.66
2023-05-23T10:37:50.303Z,100557.56
2023-05-23T10:40:29.202Z,100562.59
2023-05-23T10:43:04.288Z,100557.13
2023-05-23T10:45:42.467Z,100556.63
2023-05-23T10:48:22.680Z,100555.09
2023-05-23T10:51:04.829Z,100533.25
2023-05-23T10:53:33.598Z,100526.03
2023-05-23T10:56:01.502Z,100530.59
2023-05-23T10:58:32.316Z,100522.75
2023-05-23T11:01:03.161Z,100539.09
2023-05-23T11:03:38.071Z,100557.41
2023-05-23T11:06:07.041Z,100548.53
2023-05-23T11:08:48.280Z,100552.47
2023-05-23T11:11:17.360Z,100555.88
2023-05-23T11:14:02.599Z,100556.41
2023-05-23T11:16:33.501Z,100551.50
2023-05-23T11:19:26.014Z,100555.94
2023-05-23T11:21:56.936Z,100564.94
2023-05-23T11:24:24.896Z,100565.78
2023-05-23T11:26:54.658Z,100558.84
2023-05-23T11:29:27.614Z,100567.44
2023-05-23T11:31:56.940Z,100555.69
2023-05-23T11:34:27.309Z,100562.53
2023-05-23T11:36:56.687Z,100570.41
2023-05-23T11:39:24.817Z,100569.69
2023-05-23T11:42:00.902Z,100569.00
2023-05-23T11:44:30.605Z,100573.03
2023-05-23T11:47:02.728Z,100576.88
2023-05-23T11:49:32.386Z,100571.44
2023-05-23T11:52:00.933Z,100576.09
2023-05-23T11:54:30.183Z,100571.44
2023-05-23T11:56:59.000Z,100573.59
2023-05-23T11:59:28.638Z,100572.88
2023-05-23T12:01:58.067Z,100570.69
2023-05-23T12:04:27.757Z,100559.97
2023-05-23T12:06:55.692Z,100546.97
2023-05-23T12:09:24.009Z,100547.81
2023-05-23T12:11:52.519Z,100569.19
2023-05-23T12:14:20.727Z,100571.38
2023-05-23T12:16:48.909Z,100564.38
2023-05-23T12:19:19.336Z,100569.75
2023-05-23T12:21:48.482Z,100572.84
2023-05-23T12:24:17.834Z,100567.13
2023-05-23T12:26:55.576Z,100564.28
2023-05-23T12:29:32.756Z,100574.19
2023-05-23T12:32:03.437Z,100565.75
2023-05-23T12:34:32.797Z,100568.72
2023-05-23T12:37:18.129Z,100572.31
2023-05-23T12:39:47.215Z,100568.78
2023-05-23T12:42:15.121Z,100572.44
2023-05-23T12:44:43.586Z,100577.53
2023-05-23T12:47:13.343Z,100573.91
2023-05-23T12:49:44.842Z,100574.22
2023-05-23T12:52:12.756Z,100569.22
2023-05-23T12:54:40.755Z,100568.84
2023-05-23T12:57:08.512Z,100571.41
2023-05-23T12:59:36.795Z,100570.31
2023-05-23T13:02:04.787Z,100566.81
2023-05-23T13:04:32.795Z,100560.75
2023-05-23T13:07:02.196Z,100551.06
2023-05-23T13:09:30.911Z,100555.19
2023-05-23T13:11:59.027Z,100552.78
2023-05-23T13:14:27.259Z,100562.06
2023-05-23T13:16:55.490Z,100571.31
2023-05-23T13:19:23.802Z,100558.31
2023-05-23T13:21:51.835Z,100570.00
2023-05-23T13:24:21.061Z,100563.00
2023-05-23T13:26:48.904Z,100554.72
2023-05-23T13:29:17.248Z,100555.75
2023-05-23T13:31:45.163Z,100541.38
2023-05-23T13:34:13.357Z,100555.22
2023-05-23T13:36:42.430Z,100565.63
2023-05-23T13:39:10.626Z,100569.59
2023-05-23T13:41:40.380Z,100559.53
2023-05-23T13:44:08.450Z,100561.03
2023-05-23T13:46:36.747Z,100567.84
2023-05-23T13:49:04.535Z,100566.38
2023-05-23T13:51:33.052Z,100570.38
2023-05-23T13:54:01.605Z,100580.34
2023-05-23T13:56:29.385Z,100563.38
2023-05-23T13:58:58.817Z,100550.06
2023-05-23T14:01:26.677Z,100555.06
2023-05-23T14:03:54.441Z,100559.88
2023-05-23T14:06:22.510Z,100549.41
2023-05-23T14:08:51.238Z,100549.94
2023-05-23T14:11:19.491Z,100548.28
2023-05-23T14:13:47.641Z,100557.94
2023-05-23T14:16:17.743Z,100560.34
2023-05-23T14:18:45.942Z,100566.34
2023-05-23T14:21:14.054Z,100559.56
2023-05-23T14:23:41.993Z,100562.06
2023-05-23T14:26:09.812Z,100564.97
2023-05-23T14:28:37.582Z,100566.94
2023-05-23T14:31:06.077Z,100569.63
2023-05-23T14:33:35.204Z,100552.44
2023-05-23T14:36:03.636Z,100559.38
2023-05-23T14:38:31.426Z,100559.06
2023-05-23T14:41:00.416Z,100567.44
2023-05-23T14:43:29.294Z,100558.06
2023-05-23T14:45:57.753Z,100570.59
2023-05-23T14:48:25.493Z,100572.22
2023-05-23T14:50:54.844Z,100578.09
2023-05-23T14:53:23.985Z,100574.59
2023-05-23T14:55:51.791Z,100582.44
2023-05-23T14:58:19.941Z,100590.16
2023-05-23T15:00:48.422Z,100592.94
2023-05-23T15:03:18.050Z,100584.13
2023-05-23T15:05:49.018Z,100589.41
2023-05-23T15:08:19.444Z,100590.22
2023-05-23T15:10:47.494Z,100591.69
2023-05-23T15:13:15.523Z,100588.69
2023-05-23T15:15:44.296Z,100596.72
2023-05-23T15:18:21.409Z,100597.84
2023-05-23T15:20:56.365Z,100606.41
2023-05-23T15:23:26.597Z,100599.88
2023-05-23T15:25:55.515Z,100599.19
2023-05-23T15:28:24.131Z,100608.16
2023-05-23T15:30:52.300Z,100613.88
2023-05-23T15:33:20.235Z,100603.94
2023-05-23T15:35:48.200Z,100611.00
2023-05-23T15:38:17.792Z,100614.06
2023-05-23T15:40:49.364Z,100612.88
2023-05-23T15:43:17.435Z,100612.31
2023-05-23T15:45:45.257Z,100612.94
2023-05-23T15:48:14.242Z,100612.81
2023-05-23T15:50:42.419Z,100611.41
2023-05-23T15:53:10.503Z,100612.22
2023-05-23T15:55:41.262Z,100620.94
2023-05-23T15:58:12.000Z,100615.66
2023-05-23T16:00:40.495Z,100615.84
2023-05-23T16:03:08.717Z,100615.34
2023-05-23T16:05:37.084Z,100631.91
2023-05-23T16:08:05.239Z,100617.66
2023-05-23T16:10:33.096Z,100616.63
2023-05-23T16:13:01.110Z,100612.09
2023-05-23T16:15:32.109Z,100611.78
2023-05-23T16:17:59.931Z,100607.47
2023-05-23T16:20:28.811Z,100610.53
2023-05-23T16:22:57.267Z,100612.25
2023-05-23T16:25:25.431Z,100612.28
2023-05-23T16:27:54.932Z,100605.94
2023-05-23T16:31:14.046Z,100611.22
2023-05-23T16:33:43.513Z,100603.13
2023-05-23T16:36:11.692Z,100603.19
2023-05-23T16:38:40.049Z,100600.81
2023-05-23T16:41:08.164Z,100605.47
2023-05-23T16:43:36.497Z,100606.44
2023-05-23T16:46:04.699Z,100609.03
2023-05-23T16:48:32.853Z,100601.44
2023-05-23T16:51:02.264Z,100597.72
2023-05-23T16:53:30.374Z,100596.78
2023-05-23T16:55:58.317Z,100599.19
2023-05-23T16:58:26.484Z,100600.63
2023-05-23T17:00:55.336Z,100598.38
2023-05-23T17:03:23.717Z,100612.22
2023-05-23T17:05:51.596Z,100608.41
2023-05-23T17:08:21.585Z,100608.22
2023-05-23T17:10:49.709Z,100611.78
2023-05-23T17:13:17.662Z,100608.75
2023-05-23T17:15:46.418Z,100611.63
2023-05-23T17:18:14.214Z,100609.59
2023-05-23T17:20:42.204Z,100617.19
2023-05-23T17:23:12.593Z,100615.81
2023-05-23T17:25:41.877Z,100611.00
2023-05-23T17:28:11.959Z,100615.41
2023-05-23T17:30:40.304Z,100631.63
2023-05-23T17:33:08.691Z,100625.50
2023-05-23T17:35:36.531Z,100627.06
2023-05-23T17:38:04.495Z,100627.59
2023-05-23T17:40:32.316Z,100627.19
2023-05-23T17:43:01.530Z,100638.78
2023-05-23T17:45:29.307Z,100637.69
2023-05-23T17:47:58.857Z,100638.78
2023-05-23T17:50:26.834Z,100649.28
2023-05-23T17:52:54.682Z,100644.13
2023-05-23T17:55:22.945Z,100645.09
2023-05-23T17:57:51.639Z,100639.34
2023-05-23T18:00:21.592Z,100658.56
2023-05-23T18:02:51.115Z,100654.13
2023-05-23T18:05:20.328Z,100661.56
2023-05-23T18:07:48.509Z,100666.94
2023-05-23T18:10:16.859Z,100665.63
2023-05-23T18:12:44.573Z,100672.88
2023-05-23T18:15:13.296Z,100673.16
2023-05-23T18:17:42.577Z,100662.16
2023-05-23T18:20:11.623Z,100669.69
2023-05-23T18:22:41.273Z,100675.34
2023-05-23T18:25:10.111Z,100671.50
2023-05-23T18:27:38.397Z,100674.91
2023-05-23T18:30:08.019Z,100686.16
2023-05-23T18:32:35.822Z,100692.53
2023-05-23T18:35:05.794Z,100693.66
2023-05-23T18:37:34.103Z,100696.13
2023-05-23T18:40:02.821Z,100697.69
2023-05-23T18:42:32.036Z,100711.47
2023-05-23T18:45:00.320Z,100716.69
2023-05-23T18:47:28.364Z,100713.88
2023-05-23T18:49:56.414Z,100715.00
2023-05-23T18:52:26.156Z,100716.78
2023-05-23T18:54:54.970Z,100712.47
2023-05-23T18:57:23.563Z,100713.78
2023-05-23T18:59:52.266Z,100716.72
2023-05-23T19:02:20.464Z,100717.44
2023-05-23T19:04:48.332Z,100722.66
2023-05-23T19:07:16.600Z,100725.63
2023-05-23T19:09:46.947Z,100732.38
2023-05-23T19:12:15.017Z,100739.50
2023-05-23T19:14:43.281Z,100742.94
2023-05-23T19:17:11.557Z,100741.56
2023-05-23T19:19:39.414Z,100745.19
2023-05-23T19:22:07.285Z,100751.25
2023-05-23T19:24:35.168Z,100758.44
2023-05-23T19:27:05.115Z,100767.13
2023-05-23T19:29:33.614Z,100777.09
2023-05-23T19:32:01.707Z,100775.84
2023-05-23T19:34:29.489Z,100771.53
2023-05-23T19:36:57.887Z,100776.56
2023-05-23T19:39:26.491Z,100779.63
2023-05-23T19:41:54.975Z,100785.06
2023-05-23T19:44:24.405Z,100782.78
2023-05-23T19:46:52.538Z,100791.75
2023-05-23T19:49:20.910Z,100787.50
2023-05-23T19:51:49.126Z,100795.78
2023-05-23T19:54:17.227Z,100791.56
2023-05-23T19:56:45.568Z,100806.31
2023-05-23T19:59:13.711Z,100799.06
2023-05-23T20:01:43.300Z,100800.72
2023-05-23T20:04:12.797Z,100801.84
2023-05-23T20:06:41.072Z,100809.19
2023-05-23T20:09:09.963Z,100809.47
2023-05-23T20:11:38.305Z,100816.13
2023-05-23T20:14:06.095Z,100825.41
2023-05-23T20:16:34.734Z,100811.56
2023-05-23T20:19:04.071Z,100826.50
2023-05-23T20:21:32.416Z,100830.19
2023-05-23T20:24:00.520Z,100829.72
2023-05-23T20:26:28.371Z,100823.34
2023-05-23T20:28:56.109Z,100829.72
2023-05-23T20:31:24.118Z,100825.06
2023-05-23T20:33:52.501Z,100831.59
2023-05-23T20:36:22.135Z,100828.09
2023-05-23T20:38:50.386Z,100829.16
2023-05-23T20:41:18.168Z,100838.09
2023-05-23T20:43:47.011Z,100835.56
2023-05-23T20:46:14.982Z,100831.31
2023-05-23T20:48:43.174Z,100838.94
2023-05-23T20:51:11.120Z,100836.47
2023-05-23T20:53:41.889Z,100837.16
2023-05-23T20:56:10.733Z,100834.94
2023-05-23T20:58:38.807Z,100839.13
2023-05-23T21:01:06.925Z,100836.81
2023-05-23T21:03:35.043Z,100839.19
2023-05-23T21:06:02.975Z,100839.00
2023-05-23T21:08:33.071Z,100841.47
2023-05-23T21:11:03.843Z,100836.22
2023-05-23T21:13:31.633Z,100836.94
2023-05-23T21:15:59.554Z,100845.13
2023-05-23T21:18:27.404Z,100842.41
2023-05-23T21:20:55.329Z,100839.78
2023-05-23T21:23:23.171Z,100844.72
2023-05-23T21:25:51.371Z,100849.59
2023-05-23T21:28:21.134Z,100853.59
2023-05-23T21:30:49.360Z,100856.06
2023-05-23T21:33:17.745Z,100859.53
2023-05-23T21:35:46.167Z,100858.50
2023-05-23T21:38:14.410Z,100860.34
2023-05-23T21:40:43.525Z,100854.63
2023-05-23T21:43:11.505Z,100854.66
2023-05-23T21:45:40.637Z,100858.59
2023-05-23T21:48:09.168Z,100864.28
2023-05-23T21:50:38.407Z,100872.09
2023-05-23T21:53:06.321Z,100869.34
2023-05-23T21:55:34.461Z,100872.31
2023-05-23T21:58:02.571Z,100870.41
2023-05-23T22:00:31.476Z,100874.78
2023-05-23T22:03:00.614Z,100875.50
2023-05-23T22:05:28.686Z,100876.78
2023-05-23T22:07:56.721Z,100877.81
2023-05-23T22:10:24.776Z,100877.19
2023-05-23T22:12:53.257Z,100879.03
2023-05-23T22:15:21.351Z,100877.97
2023-05-23T22:17:49.347Z,100874.53
2023-05-23T22:20:20.485Z,100876.78
2023-05-23T22:22:48.414Z,100882.84
2023-05-23T22:25:17.025Z,100882.69
2023-05-23T22:27:44.861Z,100892.00
2023-05-23T22:30:13.688Z,100894.22
2023-05-23T22:32:41.494Z,100894.13
2023-05-23T22:35:12.734Z,100886.44
2023-05-23T22:37:42.016Z,100884.84
2023-05-23T22:40:11.177Z,100900.19
2023-05-23T22:42:40.176Z,100896.09
2023-05-23T22:45:09.100Z,100900.28
2023-05-23T22:47:37.325Z,100898.06
2023-05-23T22:50:05.793Z,100897.19
2023-05-23T22:52:34.516Z,100900.84
2023-05-23T22:55:05.679Z,100898.50
2023-05-23T22:57:35.096Z,100901.59
2023-05-23T23:00:03.773Z,100903.53
2023-05-23T23:02:32.131Z,100905.69
2023-05-23T23:05:01.584Z,100904.34
2023-05-23T23:07:29.640Z,100910.22
2023-05-23T23:09:57.781Z,100911.28
2023-05-23T23:12:27.114Z,100914.59
2023-05-23T23:14:54.828Z,100917.16
2023-05-23T23:17:23.357Z,100920.13
2023-05-23T23:19:51.677Z,100911.63
2023-05-23T23:22:19.645Z,100911.53
2023-05-23T23:24:48.730Z,100915.25
2023-05-23T23:27:16.847Z,100918.94
2023-05-23T23:29:46.425Z,100925.06
2023-05-23T23:32:14.218Z,100919.38
2023-05-23T23:34:42.009Z,100925.22
2023-05-23T23:37:09.747Z,100923.41
2023-05-23T23:39:37.488Z,100922.34
2023-05-23T23:42:07.188Z,100914.50
2023-05-23T23:44:35.754Z,100909.03
2023-05-23T23:47:08.977Z,100916.09
2023-05-23T23:49:39.981Z,100909.91
2023-05-23T23:52:10.145Z,100907.28
2023-05-23T23:54:40.373Z,100909.78
2023-05-23T23:57:14.697Z,100919.03
2023-05-23T23:59:44.150Z,100924.69
